Cloridorme, Canada
Current Conditions -  °F | °C
As of 12:00 AM on Thursday 23 Oct 2014 (Local Time) from CYGP Reporting Station
Clear Clear  
Wind Chill: 28°   Ceiling: Unl
Heat Index: 28°   Visibility: 15mi
Dew Point: 28°   Wind: 3mph
Humidity: 100%   Direction: 310°NW
Pressure: 30.45"   Gusts: NA
Location:  49.17°N, 64.92°W
Report Text: CYGP 230400Z 31003KT 15SM SKC M02/M02 A3045 RMK SLP314
Loading
Personal Weather Stations






























Interactive Weather Map
Tropical Storm Tracking
New forecast layout! Learn more

10-Day Weather Forecast

Advertisements
Track Severe Weather on mobile